createdAt,value
2018-09-29T00:01:47.472Z,8.00
2018-09-29T00:04:16.232Z,9.33
2018-09-29T00:06:44.487Z,8.03
2018-09-29T00:09:12.687Z,6.70
2018-09-29T00:11:40.946Z,11.73
2018-09-29T00:14:10.036Z,5.60
2018-09-29T00:16:38.143Z,16.43
2018-09-29T00:19:06.532Z,15.90
2018-09-29T00:21:35.906Z,9.03
2018-09-29T00:24:04.520Z,13.00
2018-09-29T00:26:32.892Z,9.17
2018-09-29T00:29:01.260Z,10.73
2018-09-29T00:31:29.814Z,14.07
2018-09-29T00:33:58.092Z,12.20
2018-09-29T00:36:26.336Z,9.73
2018-09-29T00:38:54.449Z,15.60
2018-09-29T00:41:22.568Z,12.23
2018-09-29T00:43:50.669Z,7.80
2018-09-29T00:46:18.800Z,10.30
2018-09-29T00:48:46.994Z,11.83
2018-09-29T00:51:15.190Z,10.47
2018-09-29T00:53:43.317Z,6.93
2018-09-29T00:56:12.028Z,10.13
2018-09-29T00:58:40.111Z,6.93
2018-09-29T01:01:08.288Z,13.53
2018-09-29T01:03:36.473Z,8.37
2018-09-29T01:06:04.753Z,7.73
2018-09-29T01:08:32.909Z,5.67
2018-09-29T01:11:01.028Z,10.60
2018-09-29T01:13:29.113Z,4.90
2018-09-29T01:15:57.181Z,6.27
2018-09-29T01:18:25.293Z,5.57
2018-09-29T01:20:53.438Z,6.50
2018-09-29T01:23:21.545Z,5.20
2018-09-29T01:25:49.814Z,7.20
2018-09-29T01:28:17.945Z,8.90
2018-09-29T01:30:46.024Z,4.53
2018-09-29T01:33:14.186Z,6.27
2018-09-29T01:35:42.307Z,4.23
2018-09-29T01:38:10.494Z,6.33
2018-09-29T01:40:38.561Z,5.00
2018-09-29T01:43:06.808Z,7.60
2018-09-29T01:45:35.039Z,6.40
2018-09-29T01:48:03.325Z,6.10
2018-09-29T01:50:31.467Z,5.07
2018-09-29T01:52:59.557Z,6.57
2018-09-29T01:55:27.746Z,6.90
2018-09-29T01:57:55.986Z,6.47
2018-09-29T02:00:24.290Z,5.87
2018-09-29T02:02:52.391Z,6.63
2018-09-29T02:05:20.517Z,8.03
2018-09-29T02:07:48.611Z,4.40
2018-09-29T02:10:16.732Z,7.63
2018-09-29T02:12:44.981Z,6.40
2018-09-29T02:15:13.209Z,6.87
2018-09-29T02:17:41.436Z,6.23
2018-09-29T02:20:10.321Z,6.27
2018-09-29T02:22:38.510Z,8.87
2018-09-29T02:25:06.636Z,4.77
2018-09-29T02:27:34.889Z,7.17
2018-09-29T02:30:03.152Z,6.07
2018-09-29T02:32:31.350Z,5.40
2018-09-29T02:34:59.590Z,9.90
2018-09-29T02:37:27.865Z,8.33
2018-09-29T02:39:56.037Z,4.30
2018-09-29T02:42:24.347Z,6.13
2018-09-29T02:44:52.599Z,5.43
2018-09-29T02:47:21.149Z,5.10
2018-09-29T02:49:49.246Z,8.43
2018-09-29T02:52:17.975Z,7.47
2018-09-29T02:54:46.183Z,6.77
2018-09-29T02:57:14.286Z,6.03
2018-09-29T02:59:42.445Z,6.33
2018-09-29T03:02:10.633Z,5.03
2018-09-29T03:04:38.829Z,3.77
2018-09-29T03:07:07.248Z,5.07
2018-09-29T03:09:35.486Z,6.57
2018-09-29T03:12:03.932Z,9.93
2018-09-29T03:14:32.206Z,8.60
2018-09-29T03:17:00.687Z,7.17
2018-09-29T03:19:28.972Z,11.30
2018-09-29T03:21:57.190Z,5.80
2018-09-29T03:24:25.797Z,7.87
2018-09-29T03:26:54.098Z,7.73
2018-09-29T03:29:22.227Z,5.73
2018-09-29T03:31:50.682Z,5.83
2018-09-29T03:34:18.796Z,6.03
2018-09-29T03:36:47.007Z,8.30
2018-09-29T03:39:15.213Z,11.37
2018-09-29T03:41:43.431Z,7.70
2018-09-29T03:44:11.813Z,8.60
2018-09-29T03:46:40.107Z,7.33
2018-09-29T03:49:08.317Z,5.73
2018-09-29T03:51:36.447Z,8.40
2018-09-29T03:54:04.967Z,6.57
2018-09-29T03:56:33.198Z,8.17
2018-09-29T03:59:01.403Z,5.83
2018-09-29T04:01:29.713Z,5.80
2018-09-29T04:03:57.856Z,8.83
2018-09-29T04:06:26.809Z,7.03
2018-09-29T04:08:55.432Z,4.07
2018-09-29T04:11:23.702Z,6.17
2018-09-29T04:13:51.904Z,4.53
2018-09-29T04:16:20.152Z,6.87
2018-09-29T04:18:48.437Z,12.77
2018-09-29T04:21:16.690Z,4.47
2018-09-29T04:23:44.871Z,3.33
2018-09-29T04:26:12.947Z,6.20
2018-09-29T04:28:41.167Z,8.17
2018-09-29T04:31:09.359Z,3.70
2018-09-29T04:33:37.550Z,6.83
2018-09-29T04:36:05.754Z,5.23
2018-09-29T04:38:34.399Z,2.63
2018-09-29T04:41:02.619Z,6.85
2018-09-29T04:43:30.939Z,4.27
2018-09-29T04:45:59.083Z,5.53
2018-09-29T04:48:27.362Z,7.28
2018-09-29T04:50:55.537Z,11.60
2018-09-29T04:53:23.734Z,5.23
2018-09-29T04:55:51.878Z,8.78
2018-09-29T04:58:20.142Z,5.50
2018-09-29T05:00:49.309Z,5.65
2018-09-29T05:03:17.405Z,6.83
2018-09-29T05:05:45.759Z,7.65
2018-09-29T05:08:13.837Z,6.15
2018-09-29T05:10:41.899Z,12.15
2018-09-29T05:13:09.940Z,7.45
2018-09-29T05:15:38.145Z,6.03
2018-09-29T05:18:06.990Z,5.80
2018-09-29T05:20:35.186Z,10.72
2018-09-29T05:23:03.384Z,4.33
2018-09-29T05:25:32.236Z,8.33
2018-09-29T05:28:00.407Z,9.95
2018-09-29T05:30:28.597Z,10.23
2018-09-29T05:32:56.705Z,11.05
2018-09-29T05:35:24.866Z,31.00
2018-09-29T05:37:53.058Z,18.57
2018-09-29T05:40:21.282Z,11.57
2018-09-29T05:42:49.433Z,11.93
2018-09-29T05:45:17.606Z,15.43
2018-09-29T05:47:45.819Z,7.37
2018-09-29T05:50:14.094Z,5.20
2018-09-29T05:52:42.291Z,10.23
2018-09-29T05:55:10.562Z,8.50
2018-09-29T05:57:38.744Z,12.10
2018-09-29T06:00:07.052Z,9.30
2018-09-29T06:02:35.394Z,6.83
2018-09-29T06:05:03.674Z,15.53
2018-09-29T06:07:31.925Z,9.13
2018-09-29T06:10:00.104Z,17.13
2018-09-29T06:12:28.213Z,21.53
2018-09-29T06:14:56.457Z,18.87
2018-09-29T06:17:24.618Z,13.47
2018-09-29T06:19:53.088Z,20.70
2018-09-29T06:22:21.673Z,28.00
2018-09-29T06:24:49.905Z,27.70
2018-09-29T06:27:18.086Z,24.30
2018-09-29T06:29:46.215Z,18.27
2018-09-29T06:32:14.424Z,22.00
2018-09-29T06:34:42.484Z,24.17
2018-09-29T06:37:10.626Z,17.87
2018-09-29T06:39:38.822Z,17.20
2018-09-29T06:42:07.044Z,18.97
2018-09-29T06:44:35.304Z,18.70
2018-09-29T06:47:03.500Z,14.60
2018-09-29T06:49:31.710Z,10.50
2018-09-29T06:51:59.969Z,12.43
2018-09-29T06:54:28.315Z,11.87
2018-09-29T06:56:56.353Z,17.53
2018-09-29T06:59:24.653Z,10.63
2018-09-29T07:01:52.899Z,6.63
2018-09-29T07:04:21.780Z,7.87
2018-09-29T07:06:49.908Z,22.03
2018-09-29T07:09:18.143Z,17.00
2018-09-29T07:11:46.465Z,16.87
2018-09-29T07:14:14.571Z,14.63
2018-09-29T07:16:42.730Z,9.43
2018-09-29T07:19:10.827Z,20.00
2018-09-29T07:21:39.017Z,27.13
2018-09-29T07:24:07.192Z,49.07
2018-09-29T07:26:35.424Z,39.10
2018-09-29T07:29:03.621Z,26.97
2018-09-29T07:31:32.282Z,13.80
2018-09-29T07:34:00.307Z,11.57
2018-09-29T07:36:28.496Z,18.30
2018-09-29T07:38:56.605Z,7.03
2018-09-29T07:41:24.822Z,6.90
2018-09-29T07:43:52.861Z,6.63
2018-09-29T07:46:21.033Z,5.90
2018-09-29T07:48:49.242Z,6.87
2018-09-29T07:51:17.415Z,5.67
2018-09-29T07:53:46.518Z,6.50
2018-09-29T07:56:14.696Z,7.03
2018-09-29T07:58:42.841Z,7.73
2018-09-29T08:01:11.013Z,10.27
2018-09-29T08:03:39.179Z,7.23
2018-09-29T08:06:07.327Z,7.13
2018-09-29T08:08:35.311Z,7.00
2018-09-29T08:11:03.414Z,7.67
2018-09-29T08:13:31.611Z,17.37
2018-09-29T08:15:59.783Z,6.63
2018-09-29T08:18:27.847Z,9.33
2018-09-29T08:20:55.913Z,9.20
2018-09-29T08:23:23.966Z,8.77
2018-09-29T08:25:52.127Z,10.77
2018-09-29T08:28:20.234Z,10.40
2018-09-29T08:30:48.408Z,8.27
2018-09-29T08:33:16.745Z,9.07
2018-09-29T08:35:44.841Z,5.57
2018-09-29T08:38:13.034Z,7.07
2018-09-29T08:40:41.238Z,7.43
2018-09-29T08:43:09.789Z,10.10
2018-09-29T08:45:37.836Z,11.57
2018-09-29T08:48:06.078Z,10.77
2018-09-29T08:50:34.297Z,5.33
2018-09-29T08:53:02.498Z,13.83
2018-09-29T08:55:30.701Z,7.30
2018-09-29T08:57:58.943Z,6.27
2018-09-29T09:00:27.056Z,9.90
2018-09-29T09:02:55.296Z,9.13
2018-09-29T09:05:23.489Z,6.37
2018-09-29T09:07:51.714Z,6.90
2018-09-29T09:10:19.975Z,13.80
2018-09-29T09:12:48.119Z,9.63
2018-09-29T09:15:16.261Z,6.03
2018-09-29T09:17:44.448Z,10.27
2018-09-29T09:20:12.513Z,9.77
2018-09-29T09:22:40.475Z,6.17
2018-09-29T09:25:08.525Z,7.47
2018-09-29T09:27:36.688Z,9.40
2018-09-29T09:30:04.971Z,7.67
2018-09-29T09:32:33.341Z,5.43
2018-09-29T09:35:01.773Z,9.57
2018-09-29T09:37:30.029Z,6.33
2018-09-29T09:39:58.233Z,9.33
2018-09-29T09:42:26.557Z,4.33
2018-09-29T09:44:54.720Z,6.07
2018-09-29T09:47:23.104Z,7.70
2018-09-29T09:49:51.213Z,6.77
2018-09-29T09:52:19.411Z,5.23
2018-09-29T09:54:47.688Z,8.10
2018-09-29T09:57:15.948Z,6.63
2018-09-29T09:59:44.041Z,8.37
2018-09-29T10:02:17.785Z,14.47
2018-09-29T10:04:46.029Z,14.57
2018-09-29T10:07:14.226Z,3.73
2018-09-29T10:09:42.329Z,6.10
2018-09-29T10:12:10.413Z,13.53
2018-09-29T10:14:38.530Z,7.43
2018-09-29T10:17:06.813Z,11.07
2018-09-29T10:19:35.034Z,15.13
2018-09-29T10:22:03.153Z,6.93
2018-09-29T10:24:31.661Z,9.67
2018-09-29T10:27:00.512Z,7.77
2018-09-29T10:29:28.704Z,5.83
2018-09-29T10:31:56.909Z,5.60
2018-09-29T10:34:25.083Z,7.90
2018-09-29T10:36:53.290Z,7.17
2018-09-29T10:39:21.478Z,6.27
2018-09-29T10:41:49.742Z,5.17
2018-09-29T10:44:18.078Z,8.90
2018-09-29T10:46:46.189Z,7.47
2018-09-29T10:49:14.359Z,7.47
2018-09-29T10:51:42.610Z,8.10
2018-09-29T10:54:10.752Z,5.33
2018-09-29T10:56:39.109Z,10.75
2018-09-29T10:59:07.426Z,4.72
2018-09-29T11:01:36.126Z,6.40
2018-09-29T11:04:04.216Z,4.50
2018-09-29T11:06:32.558Z,6.80
2018-09-29T11:09:00.589Z,9.45
2018-09-29T11:11:28.745Z,6.08
2018-09-29T11:13:56.847Z,4.83
2018-09-29T11:16:24.958Z,9.90
2018-09-29T11:18:53.088Z,7.53
2018-09-29T11:21:21.479Z,6.90
2018-09-29T11:23:49.697Z,3.35
2018-09-29T11:26:17.913Z,7.15
2018-09-29T11:28:45.992Z,8.83
2018-09-29T11:31:14.065Z,4.75
2018-09-29T11:33:42.071Z,4.87
2018-09-29T11:36:10.160Z,4.62
2018-09-29T11:38:38.351Z,7.83
2018-09-29T11:41:06.490Z,5.97
2018-09-29T11:43:34.556Z,4.62
2018-09-29T11:46:02.695Z,3.62
2018-09-29T11:48:30.843Z,4.45
2018-09-29T11:50:59.060Z,8.38
2018-09-29T11:53:27.111Z,5.55
2018-09-29T11:55:55.239Z,3.05
2018-09-29T11:58:23.439Z,7.25
2018-09-29T12:00:51.655Z,5.50
2018-09-29T12:03:19.898Z,4.67
2018-09-29T12:05:48.080Z,6.08
2018-09-29T12:08:16.191Z,12.50
2018-09-29T12:10:44.309Z,6.33
2018-09-29T12:13:12.397Z,4.05
2018-09-29T12:15:40.578Z,5.72
2018-09-29T12:18:08.696Z,7.67
2018-09-29T12:20:36.821Z,5.15
2018-09-29T12:23:05.307Z,8.13
2018-09-29T12:25:33.494Z,6.45
2018-09-29T12:28:01.545Z,9.63
2018-09-29T12:30:29.804Z,6.92
2018-09-29T12:32:57.938Z,7.87
2018-09-29T12:35:26.101Z,10.20
2018-09-29T12:37:54.257Z,6.85
2018-09-29T12:40:22.532Z,5.83
2018-09-29T12:42:50.753Z,6.60
2018-09-29T12:45:20.212Z,6.37
2018-09-29T12:47:48.464Z,5.22
2018-09-29T12:50:16.555Z,6.15
2018-09-29T12:52:44.688Z,4.37
2018-09-29T12:55:12.945Z,5.65
2018-09-29T12:57:42.493Z,11.55
2018-09-29T13:00:10.683Z,7.30
2018-09-29T13:02:38.798Z,5.45
2018-09-29T13:05:07.076Z,5.92
2018-09-29T13:07:35.165Z,4.55
2018-09-29T13:10:03.282Z,4.87
2018-09-29T13:12:31.432Z,9.70
2018-09-29T13:14:59.565Z,5.15
2018-09-29T13:17:27.746Z,5.92
2018-09-29T13:19:56.472Z,5.45
2018-09-29T13:22:24.597Z,4.78
2018-09-29T13:24:52.717Z,2.95
2018-09-29T13:27:20.785Z,8.50
2018-09-29T13:29:48.929Z,5.22
2018-09-29T13:32:23.406Z,3.83
2018-09-29T13:34:51.682Z,9.58
2018-09-29T13:37:19.889Z,8.95
2018-09-29T13:39:48.838Z,10.00
2018-09-29T13:42:17.009Z,8.48
2018-09-29T13:44:45.288Z,7.72
2018-09-29T13:47:13.543Z,4.97
2018-09-29T13:49:41.805Z,6.67
2018-09-29T13:52:10.032Z,6.15
2018-09-29T13:54:38.248Z,6.83
2018-09-29T13:57:06.478Z,5.42
2018-09-29T13:59:34.786Z,6.58
2018-09-29T14:02:02.925Z,8.43
2018-09-29T14:04:31.218Z,6.65
2018-09-29T14:06:59.392Z,6.95
2018-09-29T14:09:27.583Z,4.30
2018-09-29T14:11:56.008Z,3.67
2018-09-29T14:14:24.462Z,7.37
2018-09-29T14:16:52.692Z,5.00
2018-09-29T14:19:20.970Z,5.33
2018-09-29T14:21:49.338Z,4.87
2018-09-29T14:24:17.615Z,5.53
2018-09-29T14:26:46.440Z,6.50
2018-09-29T14:29:14.852Z,4.30
2018-09-29T14:40:21.098Z,5.27
2018-09-29T14:42:49.281Z,7.27
2018-09-29T14:45:17.639Z,6.40
2018-09-29T14:47:45.876Z,4.37
2018-09-29T14:50:14.686Z,6.70
2018-09-29T14:52:42.873Z,7.07
2018-09-29T14:55:11.933Z,4.90
2018-09-29T14:57:40.202Z,7.43
2018-09-29T15:00:09.523Z,4.70
2018-09-29T15:02:37.905Z,4.83
2018-09-29T15:05:06.103Z,2.63
2018-09-29T15:07:34.427Z,3.60
2018-09-29T15:10:03.087Z,3.50
2018-09-29T15:12:31.276Z,7.53
2018-09-29T15:14:59.517Z,7.13
2018-09-29T15:17:27.769Z,2.93
2018-09-29T15:19:55.826Z,4.23
2018-09-29T15:22:24.179Z,5.50
2018-09-29T15:24:52.366Z,4.23
2018-09-29T15:27:20.566Z,5.57
2018-09-29T15:29:48.908Z,11.23
2018-09-29T15:32:17.202Z,8.70
2018-09-29T15:34:45.289Z,9.80
2018-09-29T15:37:13.598Z,6.93
2018-09-29T15:39:41.785Z,5.90
2018-09-29T15:42:09.891Z,5.40
2018-09-29T15:44:38.118Z,7.83
2018-09-29T15:47:06.421Z,7.03
2018-09-29T15:49:34.648Z,4.17
2018-09-29T15:52:02.774Z,5.00
2018-09-29T15:54:31.654Z,8.13
2018-09-29T15:57:00.184Z,7.37
2018-09-29T15:59:28.305Z,7.87
2018-09-29T16:01:56.405Z,5.37
2018-09-29T16:04:24.596Z,7.83
2018-09-29T16:06:52.793Z,7.97
2018-09-29T16:09:21.882Z,7.60
2018-09-29T16:11:50.670Z,6.27
2018-09-29T16:14:18.909Z,4.90
2018-09-29T16:16:47.123Z,6.30
2018-09-29T16:19:15.352Z,4.53
2018-09-29T16:21:43.570Z,6.30
2018-09-29T16:24:11.761Z,8.27
2018-09-29T16:26:39.945Z,12.47
2018-09-29T16:29:08.393Z,8.63
2018-09-29T16:31:36.582Z,7.67
2018-09-29T16:34:04.816Z,8.23
2018-09-29T16:36:33.108Z,6.50
2018-09-29T16:39:01.293Z,9.47
2018-09-29T16:41:29.556Z,8.27
2018-09-29T16:43:57.754Z,4.33
2018-09-29T16:46:26.050Z,9.83
2018-09-29T16:48:54.366Z,9.43
2018-09-29T16:51:23.361Z,8.73
2018-09-29T16:53:51.530Z,7.40
2018-09-29T16:56:19.980Z,12.67
2018-09-29T16:58:48.270Z,8.13
2018-09-29T17:01:16.509Z,6.70
2018-09-29T17:03:44.852Z,8.40
2018-09-29T17:06:13.145Z,9.93
2018-09-29T17:08:41.289Z,5.13
2018-09-29T17:11:09.574Z,8.27
2018-09-29T17:13:37.823Z,12.97
2018-09-29T17:16:06.202Z,7.30
2018-09-29T17:18:34.476Z,11.13
2018-09-29T17:21:02.749Z,7.23
2018-09-29T17:23:31.070Z,6.87
2018-09-29T17:25:59.224Z,8.57
2018-09-29T17:28:27.934Z,11.23
2018-09-29T17:30:56.032Z,11.50
2018-09-29T17:33:24.167Z,10.20
2018-09-29T17:35:52.565Z,6.90
2018-09-29T17:38:20.809Z,9.43
2018-09-29T17:40:48.990Z,10.20
2018-09-29T17:43:18.341Z,8.37
2018-09-29T17:45:49.665Z,16.33
2018-09-29T17:48:19.651Z,9.37
2018-09-29T17:50:48.416Z,8.93
2018-09-29T17:53:19.537Z,7.43
2018-09-29T17:55:47.773Z,4.60
2018-09-29T17:58:15.955Z,4.93
2018-09-29T18:00:44.194Z,7.50
2018-09-29T18:03:12.417Z,12.67
2018-09-29T18:05:40.617Z,5.03
2018-09-29T18:08:08.789Z,6.13
2018-09-29T18:10:36.953Z,5.23
2018-09-29T18:13:05.077Z,9.70
2018-09-29T18:15:33.223Z,9.07
2018-09-29T18:18:01.390Z,6.60
2018-09-29T18:20:29.602Z,5.17
2018-09-29T18:22:57.841Z,9.10
2018-09-29T18:25:26.158Z,8.53
2018-09-29T18:27:54.367Z,6.17
2018-09-29T18:30:22.523Z,10.23
2018-09-29T18:32:50.698Z,7.93
2018-09-29T18:35:18.827Z,8.77
2018-09-29T18:37:47.210Z,4.80
2018-09-29T18:40:15.305Z,9.00
2018-09-29T18:42:43.597Z,9.60
2018-09-29T18:45:11.760Z,6.03
2018-09-29T18:47:40.078Z,7.60
2018-09-29T18:50:08.456Z,12.40
2018-09-29T18:52:36.613Z,7.50
2018-09-29T18:55:04.952Z,9.57
2018-09-29T18:57:33.251Z,12.20
2018-09-29T19:00:01.468Z,19.93
2018-09-29T19:02:29.754Z,7.87
2018-09-29T19:04:57.940Z,10.77
2018-09-29T19:07:26.157Z,13.07
2018-09-29T19:09:54.317Z,8.80
2018-09-29T19:12:22.549Z,14.17
2018-09-29T19:14:50.612Z,12.87
2018-09-29T19:17:18.771Z,12.17
2018-09-29T19:19:46.936Z,10.00
2018-09-29T19:22:15.164Z,26.63
2018-09-29T19:24:43.327Z,21.63
2018-09-29T19:27:11.701Z,43.97
2018-09-29T19:29:39.998Z,30.70
2018-09-29T19:32:08.374Z,27.63
2018-09-29T19:34:36.569Z,21.57
2018-09-29T19:37:04.933Z,16.70
2018-09-29T19:39:33.138Z,12.97
2018-09-29T19:42:01.257Z,13.10
2018-09-29T19:44:29.466Z,11.87
2018-09-29T19:46:57.681Z,12.53
2018-09-29T19:49:25.925Z,13.40
2018-09-29T19:51:54.399Z,10.70
2018-09-29T19:54:23.111Z,10.73
2018-09-29T19:56:51.289Z,9.27
2018-09-29T19:59:19.446Z,19.73
2018-09-29T20:01:47.724Z,12.50
2018-09-29T20:04:15.841Z,10.30
2018-09-29T20:06:44.250Z,7.33
2018-09-29T20:09:12.291Z,9.67
2018-09-29T20:11:40.532Z,12.37
2018-09-29T20:14:08.787Z,9.57
2018-09-29T20:16:37.035Z,9.03
2018-09-29T20:19:05.542Z,6.03
2018-09-29T20:21:33.643Z,9.27
2018-09-29T20:24:01.748Z,7.93
2018-09-29T20:26:30.067Z,6.17
2018-09-29T20:28:58.154Z,11.43
2018-09-29T20:31:26.256Z,9.20
2018-09-29T20:33:54.532Z,7.70
2018-09-29T20:36:22.957Z,6.57
2018-09-29T20:38:51.067Z,9.13
2018-09-29T20:41:19.121Z,12.50
2018-09-29T20:43:47.722Z,11.17
2018-09-29T20:46:15.893Z,13.43
2018-09-29T20:48:44.252Z,9.50
2018-09-29T20:51:12.461Z,10.30
2018-09-29T20:53:40.848Z,11.43
2018-09-29T20:56:09.033Z,10.03
2018-09-29T20:58:37.264Z,7.57
2018-09-29T21:01:05.568Z,15.80
2018-09-29T21:03:33.771Z,10.20
2018-09-29T21:06:01.906Z,13.30
2018-09-29T21:08:30.059Z,15.00
2018-09-29T21:10:58.211Z,12.17
2018-09-29T21:13:26.369Z,16.77
2018-09-29T21:15:54.441Z,13.40
2018-09-29T21:18:22.590Z,11.10
2018-09-29T21:20:50.880Z,14.17
2018-09-29T21:23:19.149Z,9.63
2018-09-29T21:25:47.301Z,12.37
2018-09-29T21:28:15.499Z,11.57
2018-09-29T21:30:43.889Z,11.60
2018-09-29T21:33:12.052Z,20.50
2018-09-29T21:35:40.390Z,16.00
2018-09-29T21:38:08.700Z,16.87
2018-09-29T21:40:36.815Z,29.67
2018-09-29T21:43:04.867Z,14.97
2018-09-29T21:45:32.971Z,21.20
2018-09-29T21:48:01.049Z,14.10
2018-09-29T21:50:29.290Z,19.40
2018-09-29T21:52:57.443Z,15.57
2018-09-29T21:55:39.383Z,18.83
2018-09-29T21:58:07.480Z,16.67
2018-09-29T22:00:41.286Z,14.97
2018-09-29T22:03:09.899Z,14.63
2018-09-29T22:05:37.935Z,11.50
2018-09-29T22:08:06.133Z,13.27
2018-09-29T22:10:34.514Z,10.10
2018-09-29T22:13:02.718Z,12.73
2018-09-29T22:15:30.922Z,16.87
2018-09-29T22:17:59.084Z,15.07
2018-09-29T22:20:27.528Z,14.67
2018-09-29T22:22:56.090Z,16.17
2018-09-29T22:25:24.200Z,11.83
2018-09-29T22:27:52.621Z,11.37
2018-09-29T22:30:20.915Z,10.60
2018-09-29T22:32:49.051Z,12.20
2018-09-29T22:35:17.166Z,11.10
2018-09-29T22:37:45.219Z,14.17
2018-09-29T22:40:13.381Z,12.17
2018-09-29T22:42:41.410Z,11.37
2018-09-29T22:45:09.688Z,10.50
2018-09-29T22:47:37.788Z,12.33
2018-09-29T22:50:05.887Z,8.47
2018-09-29T22:52:34.138Z,12.43
2018-09-29T22:55:16.399Z,11.83
2018-09-29T22:57:44.775Z,17.13
2018-09-29T23:00:12.971Z,10.63
2018-09-29T23:02:41.119Z,19.40
2018-09-29T23:05:09.467Z,12.70
2018-09-29T23:07:37.732Z,10.40
2018-09-29T23:10:05.889Z,7.77
2018-09-29T23:12:34.049Z,9.83
2018-09-29T23:15:02.148Z,10.70
2018-09-29T23:17:30.499Z,9.43
2018-09-29T23:19:58.885Z,7.93
2018-09-29T23:22:27.108Z,11.37
2018-09-29T23:24:55.140Z,16.63
2018-09-29T23:27:23.492Z,9.37
2018-09-29T23:29:51.599Z,7.90
2018-09-29T23:32:19.847Z,8.43
2018-09-29T23:34:48.085Z,8.57
2018-09-29T23:37:16.236Z,8.80
2018-09-29T23:39:44.312Z,9.00
2018-09-29T23:42:12.503Z,14.57
2018-09-29T23:44:40.874Z,11.23
2018-09-29T23:47:09.153Z,8.30
2018-09-29T23:49:37.389Z,9.20
2018-09-29T23:52:05.486Z,9.70
2018-09-29T23:54:33.777Z,10.33
2018-09-29T23:57:01.763Z,7.30
2018-09-29T23:59:30.480Z,7.03
